Athens, TN

5:48 PM EST on December 06, 2016 (GMT -0500)
Ridgeways | | Change Station

Elev 945 ft 35.43 °N, 84.62 °W | Updated 8 seconds ago

Overcast
Overcast
56.8 °F
Feels Like 56.8 °F
N
0.0
Wind Variable Wind from SSW
Gusts 0.0 mph

Today
High -- | Low -- °F
--% Chance of Precip.
Yesterday
High -- | Low -- °F
Precip. -- in
Pressure 29.84 in
Visibility 5.0 miles
Clouds Mostly Cloudy 800 ft
Overcast 1200 ft
Dew Point 56 °F
Humidity 96%
Rainfall 0.60 in
Snow Depth Not available.
7:33 AM 5:25 PM
Waxing Crescent, 46% visible
METAR KMMI 062235Z AUTO 23004KT 5SM BKN008 OVC012 13/12 A2984 RMK
Pressure 29.84 in
Visibility 5.0 miles
Clouds Mostly Cloudy 800 ft
Overcast 1200 ft
Dew Point 56 °F
Humidity 96%
Rainfall 0.60 in
Snow Depth Not available.
7:33 AM 5:25 PM
Waxing Crescent, 46% visible
METAR KMMI 062235Z AUTO 23004KT 5SM BKN008 OVC012 13/12 A2984 RMK

10-Day Weather Forecast

Almanac

Astronomy

Dec. 06, 2016 Rise Set
Actual Time
Civil Twilight
Nautical Twilight
Astronomical Twilight
Moon
Length of Visible Light
Length of Day
Tomorrow will be .
, % of the Moon is Illuminated

Today's Extremes

State Highs State Lows

Community

WunderPhotos

Upload Photos

1,956,042 photos uploaded!

WunderBlog® & News

Nearby

Air Quality

  Air Quality AQ Index Pollutant
Not available.

Snow Depth

Station Depth Elevation

Earthquake Activity

City Distance Mag. Time & Date
Minimum magnitude displayed is 2.5.

Coastal Water Temperatures

Place Temperature

Stations

Nearby Weather Stations

Station Location Temp. Windchill Dew Point Humidity Wind Precip. Elev Updated Type
                   

Watches & Warnings

There are currently no watches in effect.